Terminal Aerodrome Forecast
Issued by NWS

Home | Current Version | Previous Version | Graphics & Text | Print | Product List | Glossary On
Versions: 1 2 3 4 5 6 7 8 9 10 11 12 13 14 15
000
FTUS43 KMPX 031136
TAFRNH
TAF
KRNH 031136Z 0312/0412 14005KT 6SM -SN OVC070
     FM031300 14006KT 1SM -SN BR OVC020
     FM031800 29012G20KT 5SM -SN OVC015
     FM032000 31018G27KT P6SM FEW020 BKN090
     FM040300 30012G23KT P6SM SKC
     FM040700 29010KT P6SM SKC=

USA.gov is the U.S. government's official web portal to all federal, state and local government web resources and services.